Mount Vernon, Illinois
Current Conditions -  °F | °C
As of 5:15 PM on Friday 31 Oct 2014 (Local Time) from KMVN Reporting Station
Overcast Overcast  
Wind Chill: 40°   Ceiling: 6000
Heat Index: 45°   Visibility: 10mi
Dew Point: 21°   Wind: 8mph
Humidity: 39%   Direction: 360°N
Pressure: 30.25"   Gusts: 17mph
Location:  38.32°N, 88.9°W
Report Text: KMVN 312215Z AUTO 36007G15KT 10SM OVC060 07/M06 A3025 RMK AO1
Loading
Personal Weather Stations






























Interactive Weather Map
Tropical Storm Tracking
New forecast layout! Learn more

10-Day Weather Forecast

Advertisements
Track Severe Weather on mobile